This is the latest recevied weather packets stored in our database for station/object OE3PDB-4. If no packets are shown the sender has not sent any weather packets the latest 10 day(s).
| Time | Temp. | Humidity | Pressure | Rain* | Wind** | Luminosity | Snow |
|---|---|---|---|---|---|---|---|
| 1777784405 | 10° C | 66% | 1018.6 hPa | 0 mm | - | - | - |
| 1777783805 | 9.44° C | 65% | 1018.7 hPa | 0 mm | - | - | - |
| 1777783205 | 9.44° C | 65% | 1018.6 hPa | 0 mm | - | - | - |
| 1777782605 | 9.44° C | 64% | 1018.5 hPa | 0 mm | - | - | - |
| 1777782005 | 9.44° C | 64% | 1018.5 hPa | 0 mm | - | - | - |
| 1777781405 | 10° C | 63% | 1018.5 hPa | 0 mm | - | - | - |
| 1777780805 | 10° C | 62% | 1018.5 hPa | 0 mm | - | - | - |
| 1777780205 | 10° C | 61% | 1018.5 hPa | 0 mm | - | - | - |
| 1777779605 | 10.56° C | 60% | 1018.4 hPa | 0 mm | - | - | - |
| 1777779005 | 12.78° C | 59% | 1018.4 hPa | 0 mm | - | - | - |
| 1777778405 | 12.78° C | 60% | 1018.3 hPa | 0 mm | - | - | - |
| 1777777805 | 12.22° C | 62% | 1018.4 hPa | 0 mm | - | - | - |
| 1777777205 | 9.44° C | 68% | 1018.3 hPa | 0 mm | - | - | - |
| 1777776605 | 9.44° C | 68% | 1018.3 hPa | 0 mm | - | - | - |
| 1777776005 | 8.89° C | 66% | 1018.2 hPa | 0 mm | - | - | - |
| 1777775406 | 8.89° C | 65% | 1018.3 hPa | 0 mm | - | - | - |
| 1777774805 | 8.89° C | 65% | 1018.3 hPa | 0 mm | - | - | - |
| 1777774206 | 8.89° C | 65% | 1018.1 hPa | 0 mm | - | - | - |
| 1777773605 | 8.89° C | 65% | 1018.2 hPa | 0 mm | - | - | - |
| 1777773006 | 8.89° C | 64% | 1018.2 hPa | 0 mm | - | - | - |
| 1777772406 | 8.89° C | 64% | 1018.1 hPa | 0 mm | - | - | - |
| 1777771806 | 8.89° C | 64% | 1018.1 hPa | 0 mm | - | - | - |
| 1777771206 | 9.44° C | 64% | 1018.2 hPa | 0 mm | - | - | - |
| 1777770606 | 9.44° C | 63% | 1018.4 hPa | 0 mm | - | - | - |
| 1777770006 | 9.44° C | 63% | 1018.4 hPa | 0 mm | - | - | - |
* Rain latest hour (hover to see other rain measurements)
** Current wind speed in m/s (hover to see current wind gust speed)